메인 페이지
METAR-TAF:

METAR-TAF

공항 :

림노스 섬, 그리스

위도: 39-55N, 경도: 025-14E, 고도: 5m

현재 날씨관측

예보는 19분 전, 15:20시(UTC)에 발표되었습니다.
북북동14kt
온도 18°C
습도 77%
기압 1021 hPa
시정 10km 이상
고도 1500ft 상공 구름 조금
고도 2000ft 상공 구름 보통

METAR: LGLM 211520Z 03014KT 9999 FEW015 SCT020 18/14 Q1021

시각: 18:39 (15:39 UTC)

예보

예보는 1 시간 39분 전, 14:00시(UTC)에 발표되었습니다.
예보 대상 시간: 21일 15시부터 21일 24시까지 (UTC)
북북동16kt, 순간 최대 풍속 26kt
시정 10km 이상
고도 1500ft 상공 구름 조금
고도 2000ft 상공 구름 보통

TAF: LGLM 211400Z 2115/2124 03016G26KT 9999 FEW015 SCT020

4,000개 이상의 공항 관측 자료 및 예보 (METAR 및 TAF 보고).

지도상에서 검색 가능한 기상관측소가 노란 점과 빨간 점으로 표시되어 있습니다.

기상관측소 명을 보려면 표시 위로 마우스를 이동하세요.

날씨 관측과 예보를 보려면 클릭하세요.

지도 변경 : 확대하려면 엑스 표시가 있는 녹색 버튼, 축소하려면 빼기 표시가 있는 녹색 버튼, 다음 페이지의 지도를 보려면 녹색 화살표를 클릭하세요.


METAR-TAF: